sensor_id;sensor_type;location;lat;lon;timestamp;P1;durP1;ratioP1;P2;durP2;ratioP2
20375;SDS011;10347;51.828;6.466;2022-11-13T00:00:51;7.55;;;5.80;;
20375;SDS011;10347;51.828;6.466;2022-11-13T00:03:17;8.30;;;5.97;;
20375;SDS011;10347;51.828;6.466;2022-11-13T00:05:43;8.02;;;5.50;;
20375;SDS011;10347;51.828;6.466;2022-11-13T00:08:08;9.60;;;6.80;;
20375;SDS011;10347;51.828;6.466;2022-11-13T00:10:34;6.28;;;5.40;;
20375;SDS011;10347;51.828;6.466;2022-11-13T00:13:00;7.63;;;5.72;;
20375;SDS011;10347;51.828;6.466;2022-11-13T00:15:26;7.38;;;6.22;;
20375;SDS011;10347;51.828;6.466;2022-11-13T00:17:51;8.52;;;6.03;;
20375;SDS011;10347;51.828;6.466;2022-11-13T00:20:17;7.38;;;5.63;;
20375;SDS011;10347;51.828;6.466;2022-11-13T00:22:43;8.88;;;5.60;;
20375;SDS011;10347;51.828;6.466;2022-11-13T00:25:08;7.45;;;5.85;;
20375;SDS011;10347;51.828;6.466;2022-11-13T00:27:34;10.98;;;6.10;;
20375;SDS011;10347;51.828;6.466;2022-11-13T00:30:00;7.13;;;6.00;;
20375;SDS011;10347;51.828;6.466;2022-11-13T00:32:25;6.95;;;5.90;;
20375;SDS011;10347;51.828;6.466;2022-11-13T00:34:51;7.65;;;5.97;;
20375;SDS011;10347;51.828;6.466;2022-11-13T00:37:17;7.15;;;5.25;;
20375;SDS011;10347;51.828;6.466;2022-11-13T00:39:42;8.50;;;6.45;;
20375;SDS011;10347;51.828;6.466;2022-11-13T00:42:08;7.80;;;6.22;;
20375;SDS011;10347;51.828;6.466;2022-11-13T00:44:33;8.00;;;5.68;;
20375;SDS011;10347;51.828;6.466;2022-11-13T00:46:59;8.75;;;5.57;;
20375;SDS011;10347;51.828;6.466;2022-11-13T00:49:25;7.45;;;5.88;;
20375;SDS011;10347;51.828;6.466;2022-11-13T00:51:50;8.60;;;5.43;;
20375;SDS011;10347;51.828;6.466;2022-11-13T00:54:16;7.35;;;6.07;;
20375;SDS011;10347;51.828;6.466;2022-11-13T00:56:42;9.77;;;6.03;;
20375;SDS011;10347;51.828;6.466;2022-11-13T00:59:07;7.60;;;6.00;;
20375;SDS011;10347;51.828;6.466;2022-11-13T01:01:33;6.82;;;5.60;;
20375;SDS011;10347;51.828;6.466;2022-11-13T01:03:58;5.93;;;5.28;;
20375;SDS011;10347;51.828;6.466;2022-11-13T01:06:25;6.60;;;5.82;;
20375;SDS011;10347;51.828;6.466;2022-11-13T01:08:54;6.35;;;5.63;;
20375;SDS011;10347;51.828;6.466;2022-11-13T01:11:22;6.32;;;5.65;;
20375;SDS011;10347;51.828;6.466;2022-11-13T01:13:49;7.82;;;6.30;;
20375;SDS011;10347;51.828;6.466;2022-11-13T01:16:16;7.22;;;6.18;;
20375;SDS011;10347;51.828;6.466;2022-11-13T01:18:43;8.23;;;5.90;;
20375;SDS011;10347;51.828;6.466;2022-11-13T01:21:13;6.55;;;5.55;;
20375;SDS011;10347;51.828;6.466;2022-11-13T01:23:40;7.43;;;5.53;;
20375;SDS011;10347;51.828;6.466;2022-11-13T01:26:13;8.00;;;5.93;;
20375;SDS011;10347;51.828;6.466;2022-11-13T01:28:42;8.23;;;6.20;;
20375;SDS011;10347;51.828;6.466;2022-11-13T01:31:10;7.57;;;5.55;;
20375;SDS011;10347;51.828;6.466;2022-11-13T01:33:37;7.28;;;5.80;;
20375;SDS011;10347;51.828;6.466;2022-11-13T01:36:07;6.65;;;5.47;;
20375;SDS011;10347;51.828;6.466;2022-11-13T01:38:35;8.00;;;5.95;;
20375;SDS011;10347;51.828;6.466;2022-11-13T01:41:01;8.40;;;5.78;;
20375;SDS011;10347;51.828;6.466;2022-11-13T01:43:29;6.35;;;5.70;;
20375;SDS011;10347;51.828;6.466;2022-11-13T01:46:08;8.25;;;5.57;;
20375;SDS011;10347;51.828;6.466;2022-11-13T01:48:46;9.20;;;5.95;;
20375;SDS011;10347;51.828;6.466;2022-11-13T01:51:16;8.02;;;6.03;;
20375;SDS011;10347;51.828;6.466;2022-11-13T01:54:04;9.82;;;5.95;;
20375;SDS011;10347;51.828;6.466;2022-11-13T01:56:33;7.38;;;5.88;;
20375;SDS011;10347;51.828;6.466;2022-11-13T01:59:04;6.80;;;5.70;;
20375;SDS011;10347;51.828;6.466;2022-11-13T02:01:35;8.27;;;6.00;;
20375;SDS011;10347;51.828;6.466;2022-11-13T02:04:01;7.53;;;5.82;;
20375;SDS011;10347;51.828;6.466;2022-11-13T02:06:27;7.35;;;5.30;;
20375;SDS011;10347;51.828;6.466;2022-11-13T02:08:59;6.40;;;5.53;;
20375;SDS011;10347;51.828;6.466;2022-11-13T02:11:25;7.22;;;6.07;;
20375;SDS011;10347;51.828;6.466;2022-11-13T02:13:50;5.93;;;5.30;;
20375;SDS011;10347;51.828;6.466;2022-11-13T02:16:16;9.45;;;6.13;;
20375;SDS011;10347;51.828;6.466;2022-11-13T02:18:43;6.38;;;5.68;;
20375;SDS011;10347;51.828;6.466;2022-11-13T02:23:45;7.25;;;6.07;;
20375;SDS011;10347;51.828;6.466;2022-11-13T02:26:37;5.93;;;5.05;;
20375;SDS011;10347;51.828;6.466;2022-11-13T02:29:03;5.88;;;5.15;;
20375;SDS011;10347;51.828;6.466;2022-11-13T02:31:29;8.07;;;5.35;;
20375;SDS011;10347;51.828;6.466;2022-11-13T02:33:54;6.53;;;5.57;;
20375;SDS011;10347;51.828;6.466;2022-11-13T02:36:20;7.05;;;5.82;;
20375;SDS011;10347;51.828;6.466;2022-11-13T02:38:48;7.30;;;5.72;;
20375;SDS011;10347;51.828;6.466;2022-11-13T02:41:15;6.45;;;5.55;;
20375;SDS011;10347;51.828;6.466;2022-11-13T02:43:41;8.82;;;5.60;;
20375;SDS011;10347;51.828;6.466;2022-11-13T02:46:07;6.35;;;5.68;;
20375;SDS011;10347;51.828;6.466;2022-11-13T02:48:32;7.65;;;5.85;;
20375;SDS011;10347;51.828;6.466;2022-11-13T02:50:58;9.15;;;6.60;;
20375;SDS011;10347;51.828;6.466;2022-11-13T02:53:24;6.07;;;5.47;;
20375;SDS011;10347;51.828;6.466;2022-11-13T02:55:49;8.18;;;6.28;;
20375;SDS011;10347;51.828;6.466;2022-11-13T02:58:15;8.95;;;6.22;;
20375;SDS011;10347;51.828;6.466;2022-11-13T03:00:40;6.65;;;5.32;;
20375;SDS011;10347;51.828;6.466;2022-11-13T03:03:06;7.72;;;6.32;;
20375;SDS011;10347;51.828;6.466;2022-11-13T03:05:31;8.65;;;6.35;;
20375;SDS011;10347;51.828;6.466;2022-11-13T03:07:57;5.97;;;5.20;;
20375;SDS011;10347;51.828;6.466;2022-11-13T03:10:22;6.47;;;5.75;;
20375;SDS011;10347;51.828;6.466;2022-11-13T03:12:48;7.15;;;5.78;;
20375;SDS011;10347;51.828;6.466;2022-11-13T03:15:14;10.32;;;6.72;;
20375;SDS011;10347;51.828;6.466;2022-11-13T03:17:39;6.78;;;5.38;;
20375;SDS011;10347;51.828;6.466;2022-11-13T03:20:05;6.05;;;5.45;;
20375;SDS011;10347;51.828;6.466;2022-11-13T03:22:31;7.43;;;6.03;;
20375;SDS011;10347;51.828;6.466;2022-11-13T03:24:57;7.85;;;6.00;;
20375;SDS011;10347;51.828;6.466;2022-11-13T03:27:22;8.45;;;5.97;;
20375;SDS011;10347;51.828;6.466;2022-11-13T03:29:48;8.07;;;6.10;;
20375;SDS011;10347;51.828;6.466;2022-11-13T03:32:13;6.90;;;6.15;;
20375;SDS011;10347;51.828;6.466;2022-11-13T03:34:39;8.35;;;6.00;;
20375;SDS011;10347;51.828;6.466;2022-11-13T03:37:04;6.93;;;5.47;;
20375;SDS011;10347;51.828;6.466;2022-11-13T03:39:30;8.07;;;6.63;;
20375;SDS011;10347;51.828;6.466;2022-11-13T03:41:56;6.75;;;5.65;;
20375;SDS011;10347;51.828;6.466;2022-11-13T03:44:21;8.07;;;5.07;;
20375;SDS011;10347;51.828;6.466;2022-11-13T03:46:47;7.43;;;5.93;;
20375;SDS011;10347;51.828;6.466;2022-11-13T03:49:12;7.57;;;5.68;;
20375;SDS011;10347;51.828;6.466;2022-11-13T03:51:38;7.93;;;5.97;;
20375;SDS011;10347;51.828;6.466;2022-11-13T03:54:03;8.30;;;6.10;;
20375;SDS011;10347;51.828;6.466;2022-11-13T03:56:29;9.40;;;5.90;;
20375;SDS011;10347;51.828;6.466;2022-11-13T03:58:54;7.43;;;5.75;;
20375;SDS011;10347;51.828;6.466;2022-11-13T04:01:20;7.88;;;5.93;;
20375;SDS011;10347;51.828;6.466;2022-11-13T04:03:45;7.55;;;5.45;;
20375;SDS011;10347;51.828;6.466;2022-11-13T04:06:11;5.93;;;5.32;;
20375;SDS011;10347;51.828;6.466;2022-11-13T04:08:38;8.40;;;5.80;;
20375;SDS011;10347;51.828;6.466;2022-11-13T04:11:05;7.28;;;5.45;;
20375;SDS011;10347;51.828;6.466;2022-11-13T04:13:31;6.85;;;5.40;;
20375;SDS011;10347;51.828;6.466;2022-11-13T04:15:57;6.70;;;5.68;;
20375;SDS011;10347;51.828;6.466;2022-11-13T04:18:22;7.18;;;5.78;;
20375;SDS011;10347;51.828;6.466;2022-11-13T04:20:48;6.32;;;5.68;;
20375;SDS011;10347;51.828;6.466;2022-11-13T04:23:14;6.13;;;5.20;;
20375;SDS011;10347;51.828;6.466;2022-11-13T04:25:41;7.20;;;5.65;;
20375;SDS011;10347;51.828;6.466;2022-11-13T04:28:08;7.90;;;5.90;;
20375;SDS011;10347;51.828;6.466;2022-11-13T04:30:34;7.70;;;6.40;;
20375;SDS011;10347;51.828;6.466;2022-11-13T04:33:01;8.23;;;5.80;;
20375;SDS011;10347;51.828;6.466;2022-11-13T04:35:26;7.30;;;6.03;;
20375;SDS011;10347;51.828;6.466;2022-11-13T04:37:52;7.28;;;5.20;;
20375;SDS011;10347;51.828;6.466;2022-11-13T04:40:18;6.97;;;5.40;;
20375;SDS011;10347;51.828;6.466;2022-11-13T04:42:43;7.88;;;5.78;;
20375;SDS011;10347;51.828;6.466;2022-11-13T04:45:16;7.65;;;5.78;;
20375;SDS011;10347;51.828;6.466;2022-11-13T04:47:43;9.82;;;7.10;;
20375;SDS011;10347;51.828;6.466;2022-11-13T04:50:09;11.63;;;7.38;;
20375;SDS011;10347;51.828;6.466;2022-11-13T04:52:35;11.23;;;7.28;;
20375;SDS011;10347;51.828;6.466;2022-11-13T04:55:00;10.60;;;7.30;;
20375;SDS011;10347;51.828;6.466;2022-11-13T04:57:26;10.43;;;6.90;;
20375;SDS011;10347;51.828;6.466;2022-11-13T04:59:52;9.88;;;6.10;;
20375;SDS011;10347;51.828;6.466;2022-11-13T05:02:17;8.45;;;6.22;;
20375;SDS011;10347;51.828;6.466;2022-11-13T05:04:43;6.85;;;5.32;;
20375;SDS011;10347;51.828;6.466;2022-11-13T05:07:08;6.70;;;5.40;;
20375;SDS011;10347;51.828;6.466;2022-11-13T05:09:34;6.18;;;4.90;;
20375;SDS011;10347;51.828;6.466;2022-11-13T05:12:00;6.43;;;5.45;;
20375;SDS011;10347;51.828;6.466;2022-11-13T05:14:25;6.75;;;5.38;;
20375;SDS011;10347;51.828;6.466;2022-11-13T05:16:51;6.40;;;4.97;;
20375;SDS011;10347;51.828;6.466;2022-11-13T05:19:17;8.18;;;4.80;;
20375;SDS011;10347;51.828;6.466;2022-11-13T05:21:42;5.97;;;4.70;;
20375;SDS011;10347;51.828;6.466;2022-11-13T05:24:09;5.82;;;4.88;;
20375;SDS011;10347;51.828;6.466;2022-11-13T05:26:36;6.32;;;4.85;;
20375;SDS011;10347;51.828;6.466;2022-11-13T05:29:02;6.95;;;5.40;;
20375;SDS011;10347;51.828;6.466;2022-11-13T05:31:28;6.38;;;4.93;;
20375;SDS011;10347;51.828;6.466;2022-11-13T05:33:54;6.93;;;5.22;;
20375;SDS011;10347;51.828;6.466;2022-11-13T05:36:20;7.75;;;5.30;;
20375;SDS011;10347;51.828;6.466;2022-11-13T05:38:46;8.43;;;5.55;;
20375;SDS011;10347;51.828;6.466;2022-11-13T05:41:16;7.20;;;5.35;;
20375;SDS011;10347;51.828;6.466;2022-11-13T05:43:44;7.72;;;6.20;;
20375;SDS011;10347;51.828;6.466;2022-11-13T05:46:17;6.63;;;5.80;;
20375;SDS011;10347;51.828;6.466;2022-11-13T05:48:44;7.15;;;5.75;;
20375;SDS011;10347;51.828;6.466;2022-11-13T05:51:11;7.47;;;5.90;;
20375;SDS011;10347;51.828;6.466;2022-11-13T05:53:41;6.43;;;5.53;;
20375;SDS011;10347;51.828;6.466;2022-11-13T05:56:11;6.75;;;5.55;;
20375;SDS011;10347;51.828;6.466;2022-11-13T05:58:44;7.28;;;6.13;;
20375;SDS011;10347;51.828;6.466;2022-11-13T06:01:12;6.63;;;5.57;;
20375;SDS011;10347;51.828;6.466;2022-11-13T06:03:40;6.85;;;5.35;;
20375;SDS011;10347;51.828;6.466;2022-11-13T06:06:06;7.88;;;6.00;;
20375;SDS011;10347;51.828;6.466;2022-11-13T06:08:33;6.13;;;5.53;;
20375;SDS011;10347;51.828;6.466;2022-11-13T06:11:03;6.60;;;5.28;;
20375;SDS011;10347;51.828;6.466;2022-11-13T06:13:30;5.97;;;5.25;;
20375;SDS011;10347;51.828;6.466;2022-11-13T06:15:59;6.88;;;5.30;;
20375;SDS011;10347;51.828;6.466;2022-11-13T06:18:26;7.70;;;5.50;;
20375;SDS011;10347;51.828;6.466;2022-11-13T06:20:52;8.82;;;6.15;;
20375;SDS011;10347;51.828;6.466;2022-11-13T06:23:18;8.73;;;6.40;;
20375;SDS011;10347;51.828;6.466;2022-11-13T06:25:43;7.15;;;5.93;;
20375;SDS011;10347;51.828;6.466;2022-11-13T06:28:09;7.20;;;5.82;;
20375;SDS011;10347;51.828;6.466;2022-11-13T06:30:35;9.07;;;5.90;;
20375;SDS011;10347;51.828;6.466;2022-11-13T06:33:00;7.43;;;5.90;;
20375;SDS011;10347;51.828;6.466;2022-11-13T06:35:26;7.78;;;5.90;;
20375;SDS011;10347;51.828;6.466;2022-11-13T06:37:53;6.45;;;5.65;;
20375;SDS011;10347;51.828;6.466;2022-11-13T06:40:19;8.45;;;6.38;;
20375;SDS011;10347;51.828;6.466;2022-11-13T06:42:45;6.45;;;5.70;;
20375;SDS011;10347;51.828;6.466;2022-11-13T06:45:10;6.75;;;5.32;;
20375;SDS011;10347;51.828;6.466;2022-11-13T06:47:36;7.25;;;5.88;;
20375;SDS011;10347;51.828;6.466;2022-11-13T06:50:01;6.50;;;5.50;;
20375;SDS011;10347;51.828;6.466;2022-11-13T06:52:27;7.22;;;5.60;;
20375;SDS011;10347;51.828;6.466;2022-11-13T06:54:53;5.55;;;4.82;;
20375;SDS011;10347;51.828;6.466;2022-11-13T06:57:18;5.32;;;4.82;;
20375;SDS011;10347;51.828;6.466;2022-11-13T06:59:44;6.85;;;5.28;;
20375;SDS011;10347;51.828;6.466;2022-11-13T07:02:12;6.95;;;5.03;;
20375;SDS011;10347;51.828;6.466;2022-11-13T07:04:38;6.05;;;5.00;;
20375;SDS011;10347;51.828;6.466;2022-11-13T07:07:03;7.68;;;5.18;;
20375;SDS011;10347;51.828;6.466;2022-11-13T07:09:29;5.93;;;5.32;;
20375;SDS011;10347;51.828;6.466;2022-11-13T07:11:55;6.00;;;4.85;;
20375;SDS011;10347;51.828;6.466;2022-11-13T07:14:21;8.43;;;5.53;;
20375;SDS011;10347;51.828;6.466;2022-11-13T07:16:46;6.50;;;5.45;;
20375;SDS011;10347;51.828;6.466;2022-11-13T07:19:12;7.30;;;5.47;;
20375;SDS011;10347;51.828;6.466;2022-11-13T07:21:38;5.78;;;5.13;;
20375;SDS011;10347;51.828;6.466;2022-11-13T07:24:03;5.82;;;5.22;;
20375;SDS011;10347;51.828;6.466;2022-11-13T07:26:29;6.60;;;5.50;;
20375;SDS011;10347;51.828;6.466;2022-11-13T07:28:55;6.80;;;5.53;;
20375;SDS011;10347;51.828;6.466;2022-11-13T07:31:20;7.15;;;5.38;;
20375;SDS011;10347;51.828;6.466;2022-11-13T07:33:46;6.78;;;5.18;;
20375;SDS011;10347;51.828;6.466;2022-11-13T07:36:13;6.60;;;5.65;;
20375;SDS011;10347;51.828;6.466;2022-11-13T07:38:39;6.63;;;5.93;;
20375;SDS011;10347;51.828;6.466;2022-11-13T07:41:05;7.72;;;6.07;;
20375;SDS011;10347;51.828;6.466;2022-11-13T07:43:31;7.93;;;6.30;;
20375;SDS011;10347;51.828;6.466;2022-11-13T07:45:57;9.15;;;6.47;;
20375;SDS011;10347;51.828;6.466;2022-11-13T07:48:23;9.77;;;6.78;;
20375;SDS011;10347;51.828;6.466;2022-11-13T07:50:51;9.88;;;6.30;;
20375;SDS011;10347;51.828;6.466;2022-11-13T07:53:17;9.48;;;6.90;;
20375;SDS011;10347;51.828;6.466;2022-11-13T07:55:43;12.13;;;7.97;;
20375;SDS011;10347;51.828;6.466;2022-11-13T07:58:09;10.48;;;6.95;;
20375;SDS011;10347;51.828;6.466;2022-11-13T08:00:35;10.88;;;6.85;;
20375;SDS011;10347;51.828;6.466;2022-11-13T08:03:07;7.55;;;6.53;;
20375;SDS011;10347;51.828;6.466;2022-11-13T08:05:35;9.27;;;6.85;;
20375;SDS011;10347;51.828;6.466;2022-11-13T08:08:00;12.20;;;7.22;;
20375;SDS011;10347;51.828;6.466;2022-11-13T08:10:26;9.52;;;6.55;;
20375;SDS011;10347;51.828;6.466;2022-11-13T08:13:00;8.57;;;6.32;;
20375;SDS011;10347;51.828;6.466;2022-11-13T08:15:27;7.90;;;5.90;;
20375;SDS011;10347;51.828;6.466;2022-11-13T08:17:54;8.63;;;5.80;;
20375;SDS011;10347;51.828;6.466;2022-11-13T08:20:20;8.25;;;6.43;;
20375;SDS011;10347;51.828;6.466;2022-11-13T08:22:46;11.13;;;6.75;;
20375;SDS011;10347;51.828;6.466;2022-11-13T08:25:12;10.40;;;6.80;;
20375;SDS011;10347;51.828;6.466;2022-11-13T08:27:37;9.45;;;7.15;;
20375;SDS011;10347;51.828;6.466;2022-11-13T08:30:03;10.70;;;7.10;;
20375;SDS011;10347;51.828;6.466;2022-11-13T08:32:29;10.02;;;7.03;;
20375;SDS011;10347;51.828;6.466;2022-11-13T08:34:54;13.35;;;6.85;;
20375;SDS011;10347;51.828;6.466;2022-11-13T08:37:20;12.50;;;7.63;;
20375;SDS011;10347;51.828;6.466;2022-11-13T08:39:45;10.95;;;6.85;;
20375;SDS011;10347;51.828;6.466;2022-11-13T08:42:11;11.52;;;7.45;;
20375;SDS011;10347;51.828;6.466;2022-11-13T08:44:36;9.75;;;6.25;;
20375;SDS011;10347;51.828;6.466;2022-11-13T08:47:02;9.65;;;6.88;;
20375;SDS011;10347;51.828;6.466;2022-11-13T08:49:28;9.75;;;6.05;;
20375;SDS011;10347;51.828;6.466;2022-11-13T08:51:53;8.23;;;6.07;;
20375;SDS011;10347;51.828;6.466;2022-11-13T08:54:19;8.32;;;5.97;;
20375;SDS011;10347;51.828;6.466;2022-11-13T08:56:46;9.23;;;6.63;;
20375;SDS011;10347;51.828;6.466;2022-11-13T08:59:12;8.65;;;6.85;;
20375;SDS011;10347;51.828;6.466;2022-11-13T09:01:37;10.38;;;6.85;;
20375;SDS011;10347;51.828;6.466;2022-11-13T09:04:03;9.80;;;6.78;;
20375;SDS011;10347;51.828;6.466;2022-11-13T09:06:28;8.85;;;6.47;;
20375;SDS011;10347;51.828;6.466;2022-11-13T09:08:54;8.60;;;6.25;;
20375;SDS011;10347;51.828;6.466;2022-11-13T09:11:20;11.18;;;7.50;;
20375;SDS011;10347;51.828;6.466;2022-11-13T09:13:46;8.43;;;6.78;;
20375;SDS011;10347;51.828;6.466;2022-11-13T09:16:12;11.57;;;7.75;;
20375;SDS011;10347;51.828;6.466;2022-11-13T09:18:37;13.68;;;9.00;;
20375;SDS011;10347;51.828;6.466;2022-11-13T09:21:03;11.38;;;8.13;;
20375;SDS011;10347;51.828;6.466;2022-11-13T09:23:29;8.05;;;6.32;;
20375;SDS011;10347;51.828;6.466;2022-11-13T09:25:55;12.98;;;8.07;;
20375;SDS011;10347;51.828;6.466;2022-11-13T09:28:21;9.02;;;6.53;;
20375;SDS011;10347;51.828;6.466;2022-11-13T09:30:46;8.70;;;6.85;;
20375;SDS011;10347;51.828;6.466;2022-11-13T09:33:12;7.78;;;6.13;;
20375;SDS011;10347;51.828;6.466;2022-11-13T09:35:41;5.88;;;5.28;;
20375;SDS011;10347;51.828;6.466;2022-11-13T09:38:16;6.18;;;5.28;;
20375;SDS011;10347;51.828;6.466;2022-11-13T09:40:43;6.15;;;5.38;;
20375;SDS011;10347;51.828;6.466;2022-11-13T09:45:48;11.25;;;7.45;;
20375;SDS011;10347;51.828;6.466;2022-11-13T09:48:22;7.35;;;6.50;;
20375;SDS011;10347;51.828;6.466;2022-11-13T09:50:51;7.97;;;6.00;;
20375;SDS011;10347;51.828;6.466;2022-11-13T09:53:18;7.75;;;6.03;;
20375;SDS011;10347;51.828;6.466;2022-11-13T09:58:33;7.43;;;6.25;;
20375;SDS011;10347;51.828;6.466;2022-11-13T10:04:38;8.40;;;6.30;;
20375;SDS011;10347;51.828;6.466;2022-11-13T10:12:22;8.40;;;6.05;;
20375;SDS011;10347;51.828;6.466;2022-11-13T10:14:50;9.05;;;6.13;;
20375;SDS011;10347;51.828;6.466;2022-11-13T10:21:00;7.20;;;6.32;;
20375;SDS011;10347;51.828;6.466;2022-11-13T10:23:28;6.80;;;5.88;;
20375;SDS011;10347;51.828;6.466;2022-11-13T10:25:59;6.78;;;5.70;;
20375;SDS011;10347;51.828;6.466;2022-11-13T10:28:37;6.53;;;5.78;;
20375;SDS011;10347;51.828;6.466;2022-11-13T10:31:04;8.18;;;5.72;;
20375;SDS011;10347;51.828;6.466;2022-11-13T10:33:30;6.25;;;5.65;;
20375;SDS011;10347;51.828;6.466;2022-11-13T10:35:58;6.30;;;5.70;;
20375;SDS011;10347;51.828;6.466;2022-11-13T10:38:40;6.88;;;5.90;;
20375;SDS011;10347;51.828;6.466;2022-11-13T10:41:16;8.52;;;6.45;;
20375;SDS011;10347;51.828;6.466;2022-11-13T10:46:20;6.90;;;5.95;;
20375;SDS011;10347;51.828;6.466;2022-11-13T10:48:48;6.57;;;5.10;;
20375;SDS011;10347;51.828;6.466;2022-11-13T10:53:46;7.07;;;6.05;;
20375;SDS011;10347;51.828;6.466;2022-11-13T10:56:19;5.50;;;5.00;;
20375;SDS011;10347;51.828;6.466;2022-11-13T10:59:08;9.57;;;6.30;;
20375;SDS011;10347;51.828;6.466;2022-11-13T11:01:39;6.68;;;5.10;;
20375;SDS011;10347;51.828;6.466;2022-11-13T11:04:05;5.65;;;5.03;;
20375;SDS011;10347;51.828;6.466;2022-11-13T11:06:45;5.10;;;4.60;;
20375;SDS011;10347;51.828;6.466;2022-11-13T11:09:22;7.95;;;5.90;;
20375;SDS011;10347;51.828;6.466;2022-11-13T11:12:15;9.20;;;6.00;;
20375;SDS011;10347;51.828;6.466;2022-11-13T11:14:57;5.35;;;4.78;;
20375;SDS011;10347;51.828;6.466;2022-11-13T11:20:05;6.88;;;5.75;;
20375;SDS011;10347;51.828;6.466;2022-11-13T11:22:40;6.10;;;5.32;;
20375;SDS011;10347;51.828;6.466;2022-11-13T11:25:13;5.50;;;4.63;;
20375;SDS011;10347;51.828;6.466;2022-11-13T11:28:10;5.75;;;4.00;;
20375;SDS011;10347;51.828;6.466;2022-11-13T11:30:43;5.72;;;4.68;;
20375;SDS011;10347;51.828;6.466;2022-11-13T11:35:48;5.40;;;4.85;;
20375;SDS011;10347;51.828;6.466;2022-11-13T11:38:23;6.45;;;5.20;;
20375;SDS011;10347;51.828;6.466;2022-11-13T11:41:13;5.25;;;4.75;;
20375;SDS011;10347;51.828;6.466;2022-11-13T11:46:25;8.93;;;5.97;;
20375;SDS011;10347;51.828;6.466;2022-11-13T11:48:53;5.15;;;4.43;;
20375;SDS011;10347;51.828;6.466;2022-11-13T11:51:31;5.88;;;4.95;;
20375;SDS011;10347;51.828;6.466;2022-11-13T11:56:42;4.43;;;4.03;;
20375;SDS011;10347;51.828;6.466;2022-11-13T11:59:11;4.70;;;4.20;;
20375;SDS011;10347;51.828;6.466;2022-11-13T12:05:20;5.10;;;4.60;;
20375;SDS011;10347;51.828;6.466;2022-11-13T12:13:25;6.82;;;5.07;;
20375;SDS011;10347;51.828;6.466;2022-11-13T12:15:59;6.78;;;5.38;;
20375;SDS011;10347;51.828;6.466;2022-11-13T12:24:11;5.00;;;4.50;;
20375;SDS011;10347;51.828;6.466;2022-11-13T12:34:57;5.93;;;4.25;;
20375;SDS011;10347;51.828;6.466;2022-11-13T12:40:06;6.20;;;4.68;;
20375;SDS011;10347;51.828;6.466;2022-11-13T12:48:06;4.03;;;3.65;;
20375;SDS011;10347;51.828;6.466;2022-11-13T12:50:38;3.90;;;3.58;;
20375;SDS011;10347;51.828;6.466;2022-11-13T12:53:10;4.70;;;4.22;;
20375;SDS011;10347;51.828;6.466;2022-11-13T12:55:37;5.00;;;4.50;;
20375;SDS011;10347;51.828;6.466;2022-11-13T12:58:26;6.20;;;4.03;;
20375;SDS011;10347;51.828;6.466;2022-11-13T13:01:14;6.07;;;4.35;;
20375;SDS011;10347;51.828;6.466;2022-11-13T13:03:59;5.28;;;4.60;;
20375;SDS011;10347;51.828;6.466;2022-11-13T13:23:36;4.07;;;3.20;;
20375;SDS011;10347;51.828;6.466;2022-11-13T13:26:25;6.63;;;4.18;;
20375;SDS011;10347;51.828;6.466;2022-11-13T13:28:55;3.00;;;2.78;;
20375;SDS011;10347;51.828;6.466;2022-11-13T13:31:36;3.67;;;3.38;;
20375;SDS011;10347;51.828;6.466;2022-11-13T13:45:54;3.17;;;2.97;;
20375;SDS011;10347;51.828;6.466;2022-11-13T13:48:22;4.35;;;3.30;;
20375;SDS011;10347;51.828;6.466;2022-11-13T13:50:51;4.22;;;3.05;;
20375;SDS011;10347;51.828;6.466;2022-11-13T13:53:20;3.30;;;3.00;;
20375;SDS011;10347;51.828;6.466;2022-11-13T13:55:50;2.63;;;2.42;;
20375;SDS011;10347;51.828;6.466;2022-11-13T13:58:20;2.42;;;2.22;;
20375;SDS011;10347;51.828;6.466;2022-11-13T14:00:54;2.83;;;2.10;;
20375;SDS011;10347;51.828;6.466;2022-11-13T14:03:21;3.15;;;2.88;;
20375;SDS011;10347;51.828;6.466;2022-11-13T14:05:49;3.42;;;3.13;;
20375;SDS011;10347;51.828;6.466;2022-11-13T14:08:15;2.97;;;2.78;;
20375;SDS011;10347;51.828;6.466;2022-11-13T14:10:48;2.92;;;2.60;;
20375;SDS011;10347;51.828;6.466;2022-11-13T14:13:22;2.38;;;2.17;;
20375;SDS011;10347;51.828;6.466;2022-11-13T14:15:58;2.35;;;2.25;;
20375;SDS011;10347;51.828;6.466;2022-11-13T14:18:28;2.90;;;2.70;;
20375;SDS011;10347;51.828;6.466;2022-11-13T14:20:59;2.60;;;2.40;;
20375;SDS011;10347;51.828;6.466;2022-11-13T14:23:54;2.45;;;2.30;;
20375;SDS011;10347;51.828;6.466;2022-11-13T14:26:21;2.60;;;2.40;;
20375;SDS011;10347;51.828;6.466;2022-11-13T14:31:27;5.65;;;4.20;;
20375;SDS011;10347;51.828;6.466;2022-11-13T14:33:59;4.75;;;3.63;;
20375;SDS011;10347;51.828;6.466;2022-11-13T14:36:28;3.55;;;3.25;;
20375;SDS011;10347;51.828;6.466;2022-11-13T14:38:56;3.90;;;3.45;;
20375;SDS011;10347;51.828;6.466;2022-11-13T14:44:11;3.33;;;2.78;;
20375;SDS011;10347;51.828;6.466;2022-11-13T14:46:41;3.35;;;3.05;;
20375;SDS011;10347;51.828;6.466;2022-11-13T14:49:24;3.38;;;3.08;;
20375;SDS011;10347;51.828;6.466;2022-11-13T14:51:55;2.63;;;2.42;;
20375;SDS011;10347;51.828;6.466;2022-11-13T14:54:28;3.05;;;2.80;;
20375;SDS011;10347;51.828;6.466;2022-11-13T14:57:05;3.03;;;2.80;;
20375;SDS011;10347;51.828;6.466;2022-11-13T14:59:32;4.90;;;4.40;;
20375;SDS011;10347;51.828;6.466;2022-11-13T15:01:57;4.32;;;3.92;;
20375;SDS011;10347;51.828;6.466;2022-11-13T15:04:23;5.18;;;4.40;;
20375;SDS011;10347;51.828;6.466;2022-11-13T15:06:49;5.18;;;4.68;;
20375;SDS011;10347;51.828;6.466;2022-11-13T15:09:20;5.22;;;4.72;;
20375;SDS011;10347;51.828;6.466;2022-11-13T15:11:47;5.38;;;4.85;;
20375;SDS011;10347;51.828;6.466;2022-11-13T15:14:14;5.65;;;5.07;;
20375;SDS011;10347;51.828;6.466;2022-11-13T15:16:42;5.13;;;4.63;;
20375;SDS011;10347;51.828;6.466;2022-11-13T15:21:39;6.13;;;3.95;;
20375;SDS011;10347;51.828;6.466;2022-11-13T15:24:05;5.35;;;4.85;;
20375;SDS011;10347;51.828;6.466;2022-11-13T15:26:30;5.05;;;4.30;;
20375;SDS011;10347;51.828;6.466;2022-11-13T15:28:56;4.65;;;4.20;;
20375;SDS011;10347;51.828;6.466;2022-11-13T15:33:53;4.55;;;4.05;;
20375;SDS011;10347;51.828;6.466;2022-11-13T15:36:19;6.07;;;4.95;;
20375;SDS011;10347;51.828;6.466;2022-11-13T15:38:45;6.00;;;5.40;;
20375;SDS011;10347;51.828;6.466;2022-11-13T15:41:12;6.15;;;5.55;;
20375;SDS011;10347;51.828;6.466;2022-11-13T15:43:51;5.38;;;4.88;;
20375;SDS011;10347;51.828;6.466;2022-11-13T15:46:19;4.80;;;4.40;;
20375;SDS011;10347;51.828;6.466;2022-11-13T15:48:46;5.90;;;4.65;;
20375;SDS011;10347;51.828;6.466;2022-11-13T15:56:43;5.72;;;4.85;;
20375;SDS011;10347;51.828;6.466;2022-11-13T15:59:10;4.95;;;4.53;;
20375;SDS011;10347;51.828;6.466;2022-11-13T16:01:37;6.38;;;5.07;;
20375;SDS011;10347;51.828;6.466;2022-11-13T16:04:03;4.28;;;3.88;;
20375;SDS011;10347;51.828;6.466;2022-11-13T16:06:29;5.63;;;4.88;;
20375;SDS011;10347;51.828;6.466;2022-11-13T16:08:58;5.80;;;5.15;;
20375;SDS011;10347;51.828;6.466;2022-11-13T16:11:24;5.60;;;4.95;;
20375;SDS011;10347;51.828;6.466;2022-11-13T16:13:49;5.47;;;4.95;;
20375;SDS011;10347;51.828;6.466;2022-11-13T16:18:43;6.50;;;5.78;;
20375;SDS011;10347;51.828;6.466;2022-11-13T16:21:10;7.35;;;6.10;;
20375;SDS011;10347;51.828;6.466;2022-11-13T16:23:37;6.63;;;5.57;;
20375;SDS011;10347;51.828;6.466;2022-11-13T16:26:03;7.60;;;6.75;;
20375;SDS011;10347;51.828;6.466;2022-11-13T16:28:30;7.57;;;6.72;;
20375;SDS011;10347;51.828;6.466;2022-11-13T16:30:55;8.35;;;6.90;;
20375;SDS011;10347;51.828;6.466;2022-11-13T16:33:22;10.18;;;6.82;;
20375;SDS011;10347;51.828;6.466;2022-11-13T16:35:47;7.40;;;6.40;;
20375;SDS011;10347;51.828;6.466;2022-11-13T16:38:13;7.00;;;6.30;;
20375;SDS011;10347;51.828;6.466;2022-11-13T16:40:39;7.13;;;6.43;;
20375;SDS011;10347;51.828;6.466;2022-11-13T16:43:06;7.03;;;6.05;;
20375;SDS011;10347;51.828;6.466;2022-11-13T16:45:33;8.15;;;6.10;;